Hopewell, Ohio
Current Conditions -  °F | °C
As of 9:53 AM on Wednesday 26 Nov 2014 (Local Time) from KZZV Reporting Station
Clear Clear  
Wind Chill: -3°   Ceiling: Unl
Heat Index:   Visibility: 8mi
Dew Point: -3°   Wind: 8mph
Humidity: 75%   Direction: 40°NE
Pressure: 30.08"   Gusts: NA
Location:  39.95°N, 82.17°W
Report Text: KZZV 261453Z AUTO 04007KT 8SM CLR 01/M03 A3008 RMK AO2 SLP196 T00061033 55000
Loading
Personal Weather Stations






























Interactive Weather Map New forecast layout! Learn more

10-Day Weather Forecast

Advertisements
Track Severe Weather on mobile